sensor_id;sensor_type;location;lat;lon;timestamp;P1;durP1;ratioP1;P2;durP2;ratioP2
36971;SDS011;40554;52.122;20.678;2023-01-15T00:00:36;18.40;;;9.30;;
36971;SDS011;40554;52.122;20.678;2023-01-15T00:02:52;20.80;;;9.70;;
36971;SDS011;40554;52.122;20.678;2023-01-15T00:05:11;19.20;;;9.90;;
36971;SDS011;40554;52.122;20.678;2023-01-15T00:07:28;18.90;;;9.30;;
36971;SDS011;40554;52.122;20.678;2023-01-15T00:09:46;15.10;;;8.30;;
36971;SDS011;40554;52.122;20.678;2023-01-15T00:12:03;21.30;;;10.70;;
36971;SDS011;40554;52.122;20.678;2023-01-15T00:14:20;19.10;;;8.70;;
36971;SDS011;40554;52.122;20.678;2023-01-15T00:16:38;18.00;;;9.10;;
36971;SDS011;40554;52.122;20.678;2023-01-15T00:18:59;16.00;;;9.70;;
36971;SDS011;40554;52.122;20.678;2023-01-15T00:21:17;19.10;;;8.80;;
36971;SDS011;40554;52.122;20.678;2023-01-15T00:23:35;20.20;;;9.10;;
36971;SDS011;40554;52.122;20.678;2023-01-15T00:26:14;19.40;;;9.00;;
36971;SDS011;40554;52.122;20.678;2023-01-15T00:28:53;19.90;;;9.30;;
36971;SDS011;40554;52.122;20.678;2023-01-15T00:31:12;20.60;;;10.60;;
36971;SDS011;40554;52.122;20.678;2023-01-15T00:33:30;20.70;;;10.00;;
36971;SDS011;40554;52.122;20.678;2023-01-15T00:35:46;16.00;;;9.10;;
36971;SDS011;40554;52.122;20.678;2023-01-15T00:38:03;20.00;;;9.80;;
36971;SDS011;40554;52.122;20.678;2023-01-15T00:40:20;21.30;;;10.20;;
36971;SDS011;40554;52.122;20.678;2023-01-15T00:42:37;18.60;;;8.50;;
36971;SDS011;40554;52.122;20.678;2023-01-15T00:44:54;18.20;;;9.20;;
36971;SDS011;40554;52.122;20.678;2023-01-15T00:47:11;17.50;;;9.70;;
36971;SDS011;40554;52.122;20.678;2023-01-15T00:49:31;23.70;;;10.30;;
36971;SDS011;40554;52.122;20.678;2023-01-15T00:51:48;21.70;;;9.90;;
36971;SDS011;40554;52.122;20.678;2023-01-15T00:54:06;19.80;;;9.80;;
36971;SDS011;40554;52.122;20.678;2023-01-15T00:56:23;16.60;;;8.80;;
36971;SDS011;40554;52.122;20.678;2023-01-15T00:58:40;19.90;;;9.10;;
36971;SDS011;40554;52.122;20.678;2023-01-15T01:00:58;18.30;;;9.00;;
36971;SDS011;40554;52.122;20.678;2023-01-15T01:03:18;20.30;;;10.80;;
36971;SDS011;40554;52.122;20.678;2023-01-15T01:05:35;16.60;;;9.30;;
36971;SDS011;40554;52.122;20.678;2023-01-15T01:07:52;18.70;;;10.40;;
36971;SDS011;40554;52.122;20.678;2023-01-15T01:10:09;16.20;;;9.00;;
36971;SDS011;40554;52.122;20.678;2023-01-15T01:12:26;18.80;;;10.10;;
36971;SDS011;40554;52.122;20.678;2023-01-15T01:14:44;20.50;;;9.80;;
36971;SDS011;40554;52.122;20.678;2023-01-15T01:17:00;18.10;;;10.00;;
36971;SDS011;40554;52.122;20.678;2023-01-15T01:19:19;17.90;;;9.90;;
36971;SDS011;40554;52.122;20.678;2023-01-15T01:21:38;21.30;;;9.20;;
36971;SDS011;40554;52.122;20.678;2023-01-15T01:23:57;21.10;;;10.40;;
36971;SDS011;40554;52.122;20.678;2023-01-15T01:26:15;15.10;;;8.90;;
36971;SDS011;40554;52.122;20.678;2023-01-15T01:28:32;18.90;;;9.30;;
36971;SDS011;40554;52.122;20.678;2023-01-15T01:30:49;19.90;;;9.10;;
36971;SDS011;40554;52.122;20.678;2023-01-15T01:33:06;17.80;;;9.10;;
36971;SDS011;40554;52.122;20.678;2023-01-15T01:35:24;17.90;;;10.20;;
36971;SDS011;40554;52.122;20.678;2023-01-15T01:37:41;19.10;;;9.80;;
36971;SDS011;40554;52.122;20.678;2023-01-15T01:39:57;14.10;;;9.00;;
36971;SDS011;40554;52.122;20.678;2023-01-15T01:42:15;20.70;;;10.90;;
36971;SDS011;40554;52.122;20.678;2023-01-15T01:46:50;21.00;;;9.60;;
36971;SDS011;40554;52.122;20.678;2023-01-15T01:49:11;18.10;;;9.80;;
36971;SDS011;40554;52.122;20.678;2023-01-15T01:51:31;17.70;;;8.70;;
36971;SDS011;40554;52.122;20.678;2023-01-15T01:53:55;16.40;;;9.10;;
36971;SDS011;40554;52.122;20.678;2023-01-15T01:56:13;16.70;;;9.10;;
36971;SDS011;40554;52.122;20.678;2023-01-15T01:58:33;15.60;;;7.90;;
36971;SDS011;40554;52.122;20.678;2023-01-15T02:00:50;16.00;;;8.70;;
36971;SDS011;40554;52.122;20.678;2023-01-15T02:03:08;14.80;;;8.30;;
36971;SDS011;40554;52.122;20.678;2023-01-15T02:05:28;16.80;;;8.20;;
36971;SDS011;40554;52.122;20.678;2023-01-15T02:07:48;17.70;;;9.70;;
36971;SDS011;40554;52.122;20.678;2023-01-15T02:10:05;20.00;;;9.50;;
36971;SDS011;40554;52.122;20.678;2023-01-15T02:12:27;16.50;;;8.40;;
36971;SDS011;40554;52.122;20.678;2023-01-15T02:14:53;20.00;;;9.20;;
36971;SDS011;40554;52.122;20.678;2023-01-15T02:17:24;13.00;;;7.30;;
36971;SDS011;40554;52.122;20.678;2023-01-15T02:27:15;15.90;;;8.30;;
36971;SDS011;40554;52.122;20.678;2023-01-15T02:32:37;13.20;;;8.10;;
36971;SDS011;40554;52.122;20.678;2023-01-15T02:34:57;16.60;;;8.30;;
36971;SDS011;40554;52.122;20.678;2023-01-15T02:37:19;12.40;;;6.70;;
36971;SDS011;40554;52.122;20.678;2023-01-15T02:39:41;16.70;;;8.40;;
36971;SDS011;40554;52.122;20.678;2023-01-15T02:42:03;21.10;;;7.90;;
36971;SDS011;40554;52.122;20.678;2023-01-15T02:44:23;13.40;;;6.90;;
36971;SDS011;40554;52.122;20.678;2023-01-15T02:46:43;20.10;;;9.90;;
36971;SDS011;40554;52.122;20.678;2023-01-15T02:49:02;19.10;;;8.60;;
36971;SDS011;40554;52.122;20.678;2023-01-15T02:51:24;13.50;;;7.20;;
36971;SDS011;40554;52.122;20.678;2023-01-15T02:53:45;13.00;;;6.90;;
36971;SDS011;40554;52.122;20.678;2023-01-15T02:56:09;14.30;;;7.10;;
36971;SDS011;40554;52.122;20.678;2023-01-15T02:58:31;13.90;;;7.20;;
36971;SDS011;40554;52.122;20.678;2023-01-15T03:00:52;10.60;;;6.30;;
36971;SDS011;40554;52.122;20.678;2023-01-15T03:03:13;17.00;;;8.70;;
36971;SDS011;40554;52.122;20.678;2023-01-15T03:08:13;12.40;;;6.20;;
36971;SDS011;40554;52.122;20.678;2023-01-15T03:18:54;14.90;;;6.50;;
36971;SDS011;40554;52.122;20.678;2023-01-15T03:21:18;11.40;;;5.90;;
36971;SDS011;40554;52.122;20.678;2023-01-15T03:23:42;11.40;;;5.30;;
36971;SDS011;40554;52.122;20.678;2023-01-15T03:26:05;11.10;;;5.70;;
36971;SDS011;40554;52.122;20.678;2023-01-15T03:28:23;10.90;;;5.60;;
36971;SDS011;40554;52.122;20.678;2023-01-15T03:30:43;12.70;;;6.40;;
36971;SDS011;40554;52.122;20.678;2023-01-15T03:33:00;10.70;;;5.80;;
36971;SDS011;40554;52.122;20.678;2023-01-15T03:37:55;13.40;;;6.20;;
36971;SDS011;40554;52.122;20.678;2023-01-15T03:40:12;10.70;;;5.60;;
36971;SDS011;40554;52.122;20.678;2023-01-15T03:42:44;12.70;;;5.50;;
36971;SDS011;40554;52.122;20.678;2023-01-15T03:45:35;9.90;;;5.30;;
36971;SDS011;40554;52.122;20.678;2023-01-15T03:48:01;8.60;;;5.50;;
36971;SDS011;40554;52.122;20.678;2023-01-15T03:52:46;10.80;;;5.30;;
36971;SDS011;40554;52.122;20.678;2023-01-15T03:55:17;8.70;;;4.40;;
36971;SDS011;40554;52.122;20.678;2023-01-15T03:57:48;8.30;;;4.60;;
36971;SDS011;40554;52.122;20.678;2023-01-15T04:00:12;10.90;;;5.60;;
36971;SDS011;40554;52.122;20.678;2023-01-15T04:02:41;10.50;;;5.40;;
36971;SDS011;40554;52.122;20.678;2023-01-15T04:05:01;9.10;;;4.90;;
36971;SDS011;40554;52.122;20.678;2023-01-15T04:07:20;9.90;;;4.90;;
36971;SDS011;40554;52.122;20.678;2023-01-15T04:09:39;10.40;;;4.50;;
36971;SDS011;40554;52.122;20.678;2023-01-15T04:11:58;9.10;;;4.60;;
36971;SDS011;40554;52.122;20.678;2023-01-15T04:14:16;11.10;;;4.80;;
36971;SDS011;40554;52.122;20.678;2023-01-15T04:16:33;10.30;;;4.80;;
36971;SDS011;40554;52.122;20.678;2023-01-15T04:18:50;9.40;;;4.80;;
36971;SDS011;40554;52.122;20.678;2023-01-15T04:21:08;8.90;;;4.40;;
36971;SDS011;40554;52.122;20.678;2023-01-15T04:23:25;6.90;;;4.30;;
36971;SDS011;40554;52.122;20.678;2023-01-15T04:25:42;9.90;;;4.40;;
36971;SDS011;40554;52.122;20.678;2023-01-15T04:27:59;8.90;;;4.50;;
36971;SDS011;40554;52.122;20.678;2023-01-15T04:30:16;7.90;;;4.00;;
36971;SDS011;40554;52.122;20.678;2023-01-15T04:32:34;9.10;;;3.80;;
36971;SDS011;40554;52.122;20.678;2023-01-15T04:34:52;9.80;;;4.40;;
36971;SDS011;40554;52.122;20.678;2023-01-15T04:37:09;8.70;;;4.20;;
36971;SDS011;40554;52.122;20.678;2023-01-15T04:39:25;10.30;;;4.00;;
36971;SDS011;40554;52.122;20.678;2023-01-15T04:41:42;11.70;;;4.50;;
36971;SDS011;40554;52.122;20.678;2023-01-15T04:44:18;8.50;;;4.40;;
36971;SDS011;40554;52.122;20.678;2023-01-15T04:46:40;7.90;;;4.20;;
36971;SDS011;40554;52.122;20.678;2023-01-15T04:48:58;10.50;;;4.60;;
36971;SDS011;40554;52.122;20.678;2023-01-15T04:51:16;12.00;;;4.60;;
36971;SDS011;40554;52.122;20.678;2023-01-15T04:53:33;7.70;;;4.00;;
36971;SDS011;40554;52.122;20.678;2023-01-15T04:55:50;9.90;;;4.10;;
36971;SDS011;40554;52.122;20.678;2023-01-15T04:58:07;7.70;;;3.60;;
36971;SDS011;40554;52.122;20.678;2023-01-15T05:00:24;9.60;;;4.30;;
36971;SDS011;40554;52.122;20.678;2023-01-15T05:02:40;6.70;;;3.70;;
36971;SDS011;40554;52.122;20.678;2023-01-15T05:04:57;9.30;;;4.50;;
36971;SDS011;40554;52.122;20.678;2023-01-15T05:07:14;10.60;;;4.90;;
36971;SDS011;40554;52.122;20.678;2023-01-15T05:09:31;11.00;;;4.30;;
36971;SDS011;40554;52.122;20.678;2023-01-15T05:11:48;8.10;;;3.70;;
36971;SDS011;40554;52.122;20.678;2023-01-15T05:14:07;8.10;;;3.60;;
36971;SDS011;40554;52.122;20.678;2023-01-15T05:16:25;12.10;;;4.20;;
36971;SDS011;40554;52.122;20.678;2023-01-15T05:18:44;6.90;;;3.30;;
36971;SDS011;40554;52.122;20.678;2023-01-15T05:21:02;7.70;;;3.70;;
36971;SDS011;40554;52.122;20.678;2023-01-15T05:23:19;8.60;;;4.00;;
36971;SDS011;40554;52.122;20.678;2023-01-15T05:25:36;7.90;;;4.20;;
36971;SDS011;40554;52.122;20.678;2023-01-15T05:27:53;7.40;;;3.10;;
36971;SDS011;40554;52.122;20.678;2023-01-15T05:30:10;6.40;;;3.20;;
36971;SDS011;40554;52.122;20.678;2023-01-15T05:32:28;8.70;;;3.90;;
36971;SDS011;40554;52.122;20.678;2023-01-15T05:34:46;7.40;;;3.80;;
36971;SDS011;40554;52.122;20.678;2023-01-15T05:37:03;8.90;;;4.10;;
36971;SDS011;40554;52.122;20.678;2023-01-15T05:39:19;7.70;;;3.30;;
36971;SDS011;40554;52.122;20.678;2023-01-15T05:41:37;7.60;;;2.90;;
36971;SDS011;40554;52.122;20.678;2023-01-15T05:44:07;6.90;;;3.10;;
36971;SDS011;40554;52.122;20.678;2023-01-15T05:46:27;6.20;;;3.00;;
36971;SDS011;40554;52.122;20.678;2023-01-15T05:48:44;6.70;;;3.30;;
36971;SDS011;40554;52.122;20.678;2023-01-15T05:51:01;7.70;;;3.40;;
36971;SDS011;40554;52.122;20.678;2023-01-15T05:53:18;8.10;;;3.20;;
36971;SDS011;40554;52.122;20.678;2023-01-15T05:55:35;5.80;;;2.90;;
36971;SDS011;40554;52.122;20.678;2023-01-15T05:57:52;5.80;;;2.70;;
36971;SDS011;40554;52.122;20.678;2023-01-15T06:00:09;9.40;;;3.50;;
36971;SDS011;40554;52.122;20.678;2023-01-15T06:02:27;8.10;;;2.80;;
36971;SDS011;40554;52.122;20.678;2023-01-15T06:04:44;6.00;;;2.80;;
36971;SDS011;40554;52.122;20.678;2023-01-15T06:07:01;5.10;;;2.30;;
36971;SDS011;40554;52.122;20.678;2023-01-15T06:09:18;4.70;;;2.20;;
36971;SDS011;40554;52.122;20.678;2023-01-15T06:11:38;3.90;;;2.50;;
36971;SDS011;40554;52.122;20.678;2023-01-15T06:13:56;5.90;;;2.30;;
36971;SDS011;40554;52.122;20.678;2023-01-15T06:16:13;5.00;;;2.90;;
36971;SDS011;40554;52.122;20.678;2023-01-15T06:18:30;4.20;;;2.10;;
36971;SDS011;40554;52.122;20.678;2023-01-15T06:20:49;5.70;;;2.90;;
36971;SDS011;40554;52.122;20.678;2023-01-15T06:23:06;4.80;;;2.20;;
36971;SDS011;40554;52.122;20.678;2023-01-15T06:25:23;4.50;;;2.10;;
36971;SDS011;40554;52.122;20.678;2023-01-15T06:27:40;5.70;;;2.20;;
36971;SDS011;40554;52.122;20.678;2023-01-15T06:29:59;5.70;;;2.30;;
36971;SDS011;40554;52.122;20.678;2023-01-15T06:32:16;5.50;;;2.50;;
36971;SDS011;40554;52.122;20.678;2023-01-15T06:34:33;5.60;;;2.10;;
36971;SDS011;40554;52.122;20.678;2023-01-15T06:36:51;6.20;;;2.90;;
36971;SDS011;40554;52.122;20.678;2023-01-15T06:39:08;4.90;;;2.50;;
36971;SDS011;40554;52.122;20.678;2023-01-15T06:41:25;5.20;;;2.50;;
36971;SDS011;40554;52.122;20.678;2023-01-15T06:44:01;6.90;;;2.50;;
36971;SDS011;40554;52.122;20.678;2023-01-15T06:46:39;5.70;;;2.20;;
36971;SDS011;40554;52.122;20.678;2023-01-15T06:49:21;4.40;;;2.40;;
36971;SDS011;40554;52.122;20.678;2023-01-15T06:51:38;4.40;;;2.20;;
36971;SDS011;40554;52.122;20.678;2023-01-15T06:53:55;4.70;;;2.30;;
36971;SDS011;40554;52.122;20.678;2023-01-15T06:56:12;6.20;;;3.00;;
36971;SDS011;40554;52.122;20.678;2023-01-15T06:58:30;4.80;;;2.10;;
36971;SDS011;40554;52.122;20.678;2023-01-15T07:00:47;7.20;;;2.80;;
36971;SDS011;40554;52.122;20.678;2023-01-15T07:03:11;5.20;;;2.40;;
36971;SDS011;40554;52.122;20.678;2023-01-15T07:05:29;4.10;;;2.00;;
36971;SDS011;40554;52.122;20.678;2023-01-15T07:07:46;5.00;;;2.60;;
36971;SDS011;40554;52.122;20.678;2023-01-15T07:10:05;6.60;;;2.40;;
36971;SDS011;40554;52.122;20.678;2023-01-15T07:12:23;5.90;;;2.70;;
36971;SDS011;40554;52.122;20.678;2023-01-15T07:14:39;10.00;;;5.80;;
36971;SDS011;40554;52.122;20.678;2023-01-15T07:16:57;7.40;;;3.40;;
36971;SDS011;40554;52.122;20.678;2023-01-15T07:19:14;5.10;;;2.90;;
36971;SDS011;40554;52.122;20.678;2023-01-15T07:21:32;6.00;;;2.50;;
36971;SDS011;40554;52.122;20.678;2023-01-15T07:23:49;6.00;;;2.80;;
36971;SDS011;40554;52.122;20.678;2023-01-15T07:26:05;5.20;;;2.40;;
36971;SDS011;40554;52.122;20.678;2023-01-15T07:28:22;7.20;;;2.90;;
36971;SDS011;40554;52.122;20.678;2023-01-15T07:30:40;5.80;;;2.80;;
36971;SDS011;40554;52.122;20.678;2023-01-15T07:32:57;5.30;;;2.50;;
36971;SDS011;40554;52.122;20.678;2023-01-15T07:35:14;5.80;;;3.00;;
36971;SDS011;40554;52.122;20.678;2023-01-15T07:37:31;5.60;;;2.70;;
36971;SDS011;40554;52.122;20.678;2023-01-15T07:39:48;4.40;;;2.50;;
36971;SDS011;40554;52.122;20.678;2023-01-15T07:42:08;3.40;;;2.10;;
36971;SDS011;40554;52.122;20.678;2023-01-15T07:44:44;5.80;;;2.50;;
36971;SDS011;40554;52.122;20.678;2023-01-15T07:47:21;6.80;;;2.90;;
36971;SDS011;40554;52.122;20.678;2023-01-15T07:49:58;6.70;;;2.60;;
36971;SDS011;40554;52.122;20.678;2023-01-15T07:52:20;4.60;;;2.60;;
36971;SDS011;40554;52.122;20.678;2023-01-15T07:54:38;5.80;;;2.80;;
36971;SDS011;40554;52.122;20.678;2023-01-15T07:56:55;4.10;;;2.20;;
36971;SDS011;40554;52.122;20.678;2023-01-15T07:59:13;5.60;;;2.80;;
36971;SDS011;40554;52.122;20.678;2023-01-15T08:01:30;6.80;;;2.50;;
36971;SDS011;40554;52.122;20.678;2023-01-15T08:03:47;5.30;;;2.50;;
36971;SDS011;40554;52.122;20.678;2023-01-15T08:06:04;4.70;;;2.50;;
36971;SDS011;40554;52.122;20.678;2023-01-15T08:08:21;3.90;;;2.10;;
36971;SDS011;40554;52.122;20.678;2023-01-15T08:10:38;5.50;;;2.80;;
36971;SDS011;40554;52.122;20.678;2023-01-15T08:13:15;6.90;;;3.00;;
36971;SDS011;40554;52.122;20.678;2023-01-15T08:15:51;5.20;;;2.40;;
36971;SDS011;40554;52.122;20.678;2023-01-15T08:18:08;6.80;;;3.20;;
36971;SDS011;40554;52.122;20.678;2023-01-15T08:20:25;7.30;;;2.90;;
36971;SDS011;40554;52.122;20.678;2023-01-15T08:22:43;4.50;;;2.50;;
36971;SDS011;40554;52.122;20.678;2023-01-15T08:25:00;5.50;;;2.40;;
36971;SDS011;40554;52.122;20.678;2023-01-15T08:27:17;6.10;;;2.70;;
36971;SDS011;40554;52.122;20.678;2023-01-15T08:29:34;5.60;;;2.60;;
36971;SDS011;40554;52.122;20.678;2023-01-15T08:31:51;5.90;;;2.50;;
36971;SDS011;40554;52.122;20.678;2023-01-15T08:34:08;5.00;;;2.20;;
36971;SDS011;40554;52.122;20.678;2023-01-15T08:36:26;5.10;;;2.30;;
36971;SDS011;40554;52.122;20.678;2023-01-15T08:38:43;4.20;;;2.20;;
36971;SDS011;40554;52.122;20.678;2023-01-15T08:41:00;5.80;;;2.40;;
36971;SDS011;40554;52.122;20.678;2023-01-15T08:43:19;9.30;;;3.00;;
36971;SDS011;40554;52.122;20.678;2023-01-15T08:45:36;6.90;;;3.10;;
36971;SDS011;40554;52.122;20.678;2023-01-15T08:47:53;7.00;;;3.30;;
36971;SDS011;40554;52.122;20.678;2023-01-15T08:50:12;4.90;;;2.60;;
36971;SDS011;40554;52.122;20.678;2023-01-15T08:52:29;5.50;;;2.80;;
36971;SDS011;40554;52.122;20.678;2023-01-15T08:54:46;5.80;;;2.90;;
36971;SDS011;40554;52.122;20.678;2023-01-15T08:57:03;7.20;;;2.80;;
36971;SDS011;40554;52.122;20.678;2023-01-15T08:59:20;6.00;;;3.20;;
36971;SDS011;40554;52.122;20.678;2023-01-15T09:01:37;6.00;;;2.50;;
36971;SDS011;40554;52.122;20.678;2023-01-15T09:03:54;6.60;;;3.40;;
36971;SDS011;40554;52.122;20.678;2023-01-15T09:06:11;5.20;;;2.70;;
36971;SDS011;40554;52.122;20.678;2023-01-15T09:08:29;5.90;;;2.50;;
36971;SDS011;40554;52.122;20.678;2023-01-15T09:10:46;4.90;;;2.50;;
36971;SDS011;40554;52.122;20.678;2023-01-15T09:13:03;4.70;;;2.30;;
36971;SDS011;40554;52.122;20.678;2023-01-15T09:15:20;4.70;;;2.50;;
36971;SDS011;40554;52.122;20.678;2023-01-15T09:17:37;8.90;;;2.40;;
36971;SDS011;40554;52.122;20.678;2023-01-15T09:19:56;5.40;;;2.60;;
36971;SDS011;40554;52.122;20.678;2023-01-15T09:22:13;5.50;;;2.70;;
36971;SDS011;40554;52.122;20.678;2023-01-15T09:24:29;7.50;;;3.50;;
36971;SDS011;40554;52.122;20.678;2023-01-15T09:26:46;6.60;;;3.50;;
36971;SDS011;40554;52.122;20.678;2023-01-15T09:29:05;7.50;;;3.30;;
36971;SDS011;40554;52.122;20.678;2023-01-15T09:31:22;6.50;;;3.90;;
36971;SDS011;40554;52.122;20.678;2023-01-15T09:33:39;7.00;;;3.00;;
36971;SDS011;40554;52.122;20.678;2023-01-15T09:35:56;7.40;;;3.20;;
36971;SDS011;40554;52.122;20.678;2023-01-15T09:38:14;7.20;;;3.70;;
36971;SDS011;40554;52.122;20.678;2023-01-15T09:43:09;6.30;;;2.90;;
36971;SDS011;40554;52.122;20.678;2023-01-15T09:45:41;4.50;;;2.50;;
36971;SDS011;40554;52.122;20.678;2023-01-15T09:50:47;6.80;;;2.90;;
36971;SDS011;40554;52.122;20.678;2023-01-15T09:55:43;7.20;;;3.40;;
36971;SDS011;40554;52.122;20.678;2023-01-15T09:58:03;6.30;;;3.50;;
36971;SDS011;40554;52.122;20.678;2023-01-15T10:00:22;6.40;;;2.60;;
36971;SDS011;40554;52.122;20.678;2023-01-15T10:02:42;4.90;;;3.20;;
36971;SDS011;40554;52.122;20.678;2023-01-15T10:05:23;6.90;;;2.50;;
36971;SDS011;40554;52.122;20.678;2023-01-15T10:07:50;8.10;;;3.70;;
36971;SDS011;40554;52.122;20.678;2023-01-15T10:10:10;8.90;;;3.30;;
36971;SDS011;40554;52.122;20.678;2023-01-15T10:12:33;6.20;;;3.10;;
36971;SDS011;40554;52.122;20.678;2023-01-15T10:14:59;7.10;;;3.50;;
36971;SDS011;40554;52.122;20.678;2023-01-15T10:17:26;6.40;;;2.80;;
36971;SDS011;40554;52.122;20.678;2023-01-15T10:19:55;9.00;;;3.40;;
36971;SDS011;40554;52.122;20.678;2023-01-15T10:22:20;7.10;;;3.80;;
36971;SDS011;40554;52.122;20.678;2023-01-15T10:24:42;7.80;;;3.10;;
36971;SDS011;40554;52.122;20.678;2023-01-15T10:27:17;6.90;;;3.40;;
36971;SDS011;40554;52.122;20.678;2023-01-15T10:32:49;6.60;;;3.30;;
36971;SDS011;40554;52.122;20.678;2023-01-15T10:45:31;5.80;;;2.90;;
36971;SDS011;40554;52.122;20.678;2023-01-15T10:53:16;5.90;;;2.90;;
36971;SDS011;40554;52.122;20.678;2023-01-15T10:55:44;5.60;;;2.90;;
36971;SDS011;40554;52.122;20.678;2023-01-15T10:58:17;7.60;;;3.40;;
36971;SDS011;40554;52.122;20.678;2023-01-15T11:00:56;8.90;;;3.30;;
36971;SDS011;40554;52.122;20.678;2023-01-15T11:03:20;7.00;;;3.20;;
36971;SDS011;40554;52.122;20.678;2023-01-15T11:05:55;8.10;;;3.80;;
36971;SDS011;40554;52.122;20.678;2023-01-15T11:08:13;7.80;;;3.40;;
36971;SDS011;40554;52.122;20.678;2023-01-15T11:11:03;6.60;;;3.50;;
36971;SDS011;40554;52.122;20.678;2023-01-15T11:13:37;6.80;;;3.70;;
36971;SDS011;40554;52.122;20.678;2023-01-15T11:16:16;6.80;;;3.20;;
36971;SDS011;40554;52.122;20.678;2023-01-15T11:19:01;5.80;;;3.20;;
36971;SDS011;40554;52.122;20.678;2023-01-15T11:21:39;7.10;;;3.10;;
36971;SDS011;40554;52.122;20.678;2023-01-15T11:23:58;5.60;;;3.10;;
36971;SDS011;40554;52.122;20.678;2023-01-15T11:26:23;6.90;;;3.10;;
36971;SDS011;40554;52.122;20.678;2023-01-15T11:28:40;8.30;;;3.80;;
36971;SDS011;40554;52.122;20.678;2023-01-15T11:30:59;6.50;;;3.40;;
36971;SDS011;40554;52.122;20.678;2023-01-15T11:33:23;9.00;;;3.40;;
36971;SDS011;40554;52.122;20.678;2023-01-15T11:35:48;7.10;;;4.10;;
36971;SDS011;40554;52.122;20.678;2023-01-15T11:38:12;7.90;;;3.70;;
36971;SDS011;40554;52.122;20.678;2023-01-15T11:42:49;7.40;;;3.30;;
36971;SDS011;40554;52.122;20.678;2023-01-15T11:45:46;7.00;;;3.80;;
36971;SDS011;40554;52.122;20.678;2023-01-15T11:48:23;7.20;;;3.50;;
36971;SDS011;40554;52.122;20.678;2023-01-15T11:51:05;7.60;;;3.70;;
36971;SDS011;40554;52.122;20.678;2023-01-15T11:53:27;5.60;;;3.50;;
36971;SDS011;40554;52.122;20.678;2023-01-15T11:55:49;5.40;;;3.00;;
36971;SDS011;40554;52.122;20.678;2023-01-15T11:58:27;9.20;;;4.20;;
36971;SDS011;40554;52.122;20.678;2023-01-15T12:00:48;7.80;;;4.00;;
36971;SDS011;40554;52.122;20.678;2023-01-15T12:03:15;7.40;;;3.50;;
36971;SDS011;40554;52.122;20.678;2023-01-15T12:05:35;8.50;;;3.70;;
36971;SDS011;40554;52.122;20.678;2023-01-15T12:07:56;7.00;;;3.30;;
36971;SDS011;40554;52.122;20.678;2023-01-15T12:23:06;6.80;;;3.40;;
36971;SDS011;40554;52.122;20.678;2023-01-15T12:28:30;8.70;;;4.50;;
36971;SDS011;40554;52.122;20.678;2023-01-15T12:36:14;8.80;;;3.90;;
36971;SDS011;40554;52.122;20.678;2023-01-15T12:41:12;7.20;;;4.00;;
36971;SDS011;40554;52.122;20.678;2023-01-15T12:43:33;7.20;;;4.00;;
36971;SDS011;40554;52.122;20.678;2023-01-15T12:46:13;6.10;;;3.30;;
36971;SDS011;40554;52.122;20.678;2023-01-15T12:51:59;7.60;;;3.30;;
36971;SDS011;40554;52.122;20.678;2023-01-15T12:54:26;6.50;;;3.80;;
36971;SDS011;40554;52.122;20.678;2023-01-15T12:56:52;7.40;;;3.70;;
36971;SDS011;40554;52.122;20.678;2023-01-15T13:09:55;9.90;;;4.80;;
36971;SDS011;40554;52.122;20.678;2023-01-15T13:12:16;9.00;;;4.40;;
36971;SDS011;40554;52.122;20.678;2023-01-15T13:14:33;9.30;;;4.30;;
36971;SDS011;40554;52.122;20.678;2023-01-15T13:22:29;9.50;;;4.40;;
36971;SDS011;40554;52.122;20.678;2023-01-15T13:24:59;9.40;;;4.00;;
36971;SDS011;40554;52.122;20.678;2023-01-15T13:30:20;9.00;;;4.30;;
36971;SDS011;40554;52.122;20.678;2023-01-15T13:33:11;7.00;;;4.20;;
36971;SDS011;40554;52.122;20.678;2023-01-15T13:35:47;7.10;;;3.90;;
36971;SDS011;40554;52.122;20.678;2023-01-15T13:38:16;9.00;;;4.10;;
36971;SDS011;40554;52.122;20.678;2023-01-15T13:40:39;8.60;;;4.10;;
36971;SDS011;40554;52.122;20.678;2023-01-15T13:43:07;7.50;;;3.70;;
36971;SDS011;40554;52.122;20.678;2023-01-15T13:45:39;9.30;;;4.50;;
36971;SDS011;40554;52.122;20.678;2023-01-15T13:50:27;9.90;;;5.10;;
36971;SDS011;40554;52.122;20.678;2023-01-15T13:52:46;11.10;;;4.40;;
36971;SDS011;40554;52.122;20.678;2023-01-15T13:55:37;9.60;;;4.10;;
36971;SDS011;40554;52.122;20.678;2023-01-15T13:57:55;8.80;;;4.50;;
36971;SDS011;40554;52.122;20.678;2023-01-15T14:00:31;9.60;;;4.40;;
36971;SDS011;40554;52.122;20.678;2023-01-15T14:02:53;8.00;;;4.40;;
36971;SDS011;40554;52.122;20.678;2023-01-15T14:05:23;10.30;;;4.80;;
36971;SDS011;40554;52.122;20.678;2023-01-15T14:07:44;29.00;;;10.30;;
36971;SDS011;40554;52.122;20.678;2023-01-15T14:12:40;11.30;;;4.40;;
36971;SDS011;40554;52.122;20.678;2023-01-15T14:25:47;10.10;;;4.80;;
36971;SDS011;40554;52.122;20.678;2023-01-15T14:28:25;10.70;;;5.50;;
36971;SDS011;40554;52.122;20.678;2023-01-15T14:35:47;11.70;;;5.60;;
36971;SDS011;40554;52.122;20.678;2023-01-15T14:51:27;10.20;;;5.70;;
36971;SDS011;40554;52.122;20.678;2023-01-15T14:54:06;9.60;;;5.30;;
36971;SDS011;40554;52.122;20.678;2023-01-15T14:56:30;9.80;;;5.60;;
36971;SDS011;40554;52.122;20.678;2023-01-15T14:58:54;10.00;;;5.60;;
36971;SDS011;40554;52.122;20.678;2023-01-15T15:03:55;12.20;;;6.20;;
36971;SDS011;40554;52.122;20.678;2023-01-15T15:06:15;17.60;;;10.40;;
36971;SDS011;40554;52.122;20.678;2023-01-15T15:08:33;12.70;;;5.80;;
36971;SDS011;40554;52.122;20.678;2023-01-15T15:10:52;10.90;;;5.10;;
36971;SDS011;40554;52.122;20.678;2023-01-15T15:13:30;9.40;;;4.80;;
36971;SDS011;40554;52.122;20.678;2023-01-15T15:16:04;11.70;;;6.00;;
36971;SDS011;40554;52.122;20.678;2023-01-15T15:18:31;11.10;;;5.90;;
36971;SDS011;40554;52.122;20.678;2023-01-15T15:28:20;12.90;;;7.00;;
36971;SDS011;40554;52.122;20.678;2023-01-15T15:30:41;68.30;;;20.70;;
36971;SDS011;40554;52.122;20.678;2023-01-15T15:33:02;43.80;;;14.90;;
36971;SDS011;40554;52.122;20.678;2023-01-15T15:35:23;24.70;;;9.50;;
36971;SDS011;40554;52.122;20.678;2023-01-15T15:37:44;18.50;;;7.30;;
36971;SDS011;40554;52.122;20.678;2023-01-15T15:40:03;24.70;;;9.70;;
36971;SDS011;40554;52.122;20.678;2023-01-15T15:42:32;32.30;;;12.00;;
36971;SDS011;40554;52.122;20.678;2023-01-15T15:45:18;13.50;;;6.40;;
36971;SDS011;40554;52.122;20.678;2023-01-15T15:51:00;32.10;;;12.00;;
36971;SDS011;40554;52.122;20.678;2023-01-15T15:53:18;28.70;;;11.70;;
36971;SDS011;40554;52.122;20.678;2023-01-15T15:55:39;16.80;;;8.10;;
36971;SDS011;40554;52.122;20.678;2023-01-15T15:57:59;15.90;;;7.60;;
36971;SDS011;40554;52.122;20.678;2023-01-15T16:00:21;13.30;;;6.90;;
36971;SDS011;40554;52.122;20.678;2023-01-15T16:02:44;24.20;;;11.20;;
36971;SDS011;40554;52.122;20.678;2023-01-15T16:05:14;13.90;;;7.50;;
36971;SDS011;40554;52.122;20.678;2023-01-15T16:07:37;15.90;;;8.10;;
36971;SDS011;40554;52.122;20.678;2023-01-15T16:09:57;15.70;;;7.00;;
36971;SDS011;40554;52.122;20.678;2023-01-15T16:12:17;12.60;;;6.10;;
36971;SDS011;40554;52.122;20.678;2023-01-15T16:14:34;12.30;;;5.90;;
36971;SDS011;40554;52.122;20.678;2023-01-15T16:16:53;12.50;;;6.60;;
36971;SDS011;40554;52.122;20.678;2023-01-15T16:19:12;11.40;;;6.10;;
36971;SDS011;40554;52.122;20.678;2023-01-15T16:21:34;10.30;;;6.00;;
36971;SDS011;40554;52.122;20.678;2023-01-15T16:23:59;12.40;;;6.30;;
36971;SDS011;40554;52.122;20.678;2023-01-15T16:26:21;12.70;;;6.30;;